Time;durP1;ratioP1;P1;durP2;ratioP2;P2;SDS_P1;SDS_P2;PMS_P1;PMS_P2;Temp;Humidity;BMP_temperature;BMP_pressure;BME280_temperature;BME280_humidity;BME280_pressure;Samples;Min_cycle;Max_cycle;Signal;HPM_P1;HPM_P2
2022/06/14 00:05:43;;;;;;;7.58;6.83;;;;;;;11.44;78.53;100537.87;3506246;80;21492;-83
2022/06/14 00:10:34;;;;;;;7.12;6.40;;;;;;;11.35;78.17;100544.28;3453248;81;20998;-84
2022/06/14 00:15:26;;;;;;;7.35;6.60;;;;;;;11.27;78.24;100540.74;3431726;81;21065;-84
2022/06/14 00:20:17;;;;;;;8.35;6.03;;;;;;;11.18;78.18;100541.95;3444798;80;20951;-83
2022/06/14 00:25:29;;;;;;;7.17;6.00;;;;;;;11.11;78.53;100550.09;3443491;80;21558;-83
2022/06/14 00:30:23;;;;;;;7.17;6.47;;;;;;;11.04;78.30;100538.73;3484550;80;22088;-83
2022/06/14 00:35:14;;;;;;;11.40;6.30;;;;;;;10.98;78.37;100546.48;3393712;80;21554;-83
2022/06/14 00:40:08;;;;;;;8.98;7.30;;;;;;;10.91;78.38;100547.25;3507510;80;21569;-83
2022/06/14 00:50:04;;;;;;;7.20;6.40;;;;;;;10.91;79.16;100549.85;3389399;81;21486;-82
2022/06/14 00:55:04;;;;;;;9.50;7.12;;;;;;;10.94;78.69;100555.07;3377020;83;20983;-82
2022/06/14 01:00:07;;;;;;;7.78;6.97;;;;;;;10.91;78.94;100557.66;3393382;84;20948;-82
2022/06/14 01:05:09;;;;;;;7.20;6.60;;;;;;;10.87;78.66;100561.05;3377686;84;22070;-82
2022/06/14 01:10:15;;;;;;;8.25;6.50;;;;;;;10.87;79.14;100566.25;3354836;84;21571;-82
2022/06/14 01:15:20;;;;;;;8.03;7.17;;;;;;;10.90;79.23;100559.80;3353701;83;21006;-82
2022/06/14 01:20:16;;;;;;;7.05;6.45;;;;;;;10.84;78.94;100568.83;3365557;83;21027;-82
2022/06/14 01:25:09;;;;;;;6.40;5.80;;;;;;;10.80;78.87;100563.12;3358515;83;20980;-82
2022/06/14 01:30:05;;;;;;;6.45;5.80;;;;;;;10.75;78.87;100570.88;3330367;83;21135;-82
2022/06/14 01:35:01;;;;;;;5.63;5.03;;;;;;;10.73;78.93;100578.19;3352228;83;20963;-83
2022/06/14 01:39:55;;;;;;;5.60;4.85;;;;;;;10.72;79.15;100574.72;3380054;83;21019;-82
2022/06/14 01:45:04;;;;;;;5.75;3.72;;;;;;;10.73;78.97;100575.59;3337417;83;20935;-82
2022/06/14 01:55:54;;;;;;;8.23;3.67;;;;;;;10.68;78.97;100583.34;3374663;83;22467;-82
2022/06/14 02:01:03;;;;;;;6.13;3.73;;;;;;;10.65;78.94;100585.45;3353019;84;21227;-83
2022/06/14 02:06:08;;;;;;;4.28;3.47;;;;;;;10.62;79.00;100593.23;3278399;85;21847;-82
2022/06/14 02:11:16;;;;;;;4.33;3.22;;;;;;;10.60;79.01;100590.14;3229774;88;21532;-82
2022/06/14 02:16:18;;;;;;;4.65;3.33;;;;;;;10.56;78.79;100593.13;3258812;85;20991;-82
2022/06/14 02:21:35;;;;;;;5.62;3.27;;;;;;;10.54;78.84;100596.13;3291097;86;21194;-83
2022/06/14 02:26:37;;;;;;;6.40;4.33;;;;;;;10.50;78.79;100602.14;3285155;86;21068;-83
2022/06/14 02:31:34;;;;;;;4.55;3.25;;;;;;;10.48;78.89;100611.22;3290161;86;21121;-82
2022/06/14 02:36:30;;;;;;;5.65;3.08;;;;;;;10.46;78.79;100607.72;3284968;86;25035;-83
2022/06/14 02:41:39;;;;;;;4.20;3.80;;;;;;;10.41;78.72;100609.77;3269539;83;21026;-83
2022/06/14 02:47:06;;;;;;;4.90;3.85;;;;;;;10.37;78.52;100613.18;3330529;83;22245;-82
2022/06/14 02:52:15;;;;;;;5.33;3.35;;;;;;;10.33;78.56;100621.79;3403070;82;20993;-83
2022/06/14 02:57:26;;;;;;;5.80;3.08;;;;;;;10.29;78.72;100622.99;3428995;82;21471;-82
2022/06/14 03:02:28;;;;;;;6.97;5.15;;;;;;;10.28;78.61;100618.66;3401236;82;21049;-82
2022/06/14 03:07:24;;;;;;;4.97;3.77;;;;;;;10.26;78.51;100614.27;3414743;82;20924;-82
2022/06/14 03:12:48;;;;;;;3.67;2.95;;;;;;;10.65;78.62;100624.45;3419748;82;21020;-82
2022/06/14 03:18:09;;;;;;;5.15;2.72;;;;;;;11.87;78.11;100625.99;3386363;82;20997;-83
2022/06/14 03:23:14;;;;;;;3.52;2.98;;;;;;;13.27;76.51;100623.16;3444334;80;20949;-83
2022/06/14 03:28:17;;;;;;;4.12;2.87;;;;;;;14.56;74.41;100628.19;3358137;82;20973;-84
2022/06/14 03:33:31;;;;;;;4.50;2.92;;;;;;;15.76;71.84;100622.19;3390676;82;21012;-84
2022/06/14 03:38:27;;;;;;;6.10;3.00;;;;;;;16.62;69.91;100628.99;3417414;83;21458;-84
2022/06/14 03:43:20;;;;;;;3.72;2.83;;;;;;;16.44;68.72;100628.72;3390694;83;20920;-84
2022/06/14 03:48:13;;;;;;;3.60;2.77;;;;;;;16.14;68.78;100638.55;3370120;83;20924;-83
2022/06/14 03:53:19;;;;;;;5.35;2.72;;;;;;;15.27;69.18;100647.27;3374197;83;21465;-84
2022/06/14 03:58:31;;;;;;;4.62;3.37;;;;;;;14.30;70.10;100652.61;3387271;82;21050;-83
2022/06/14 04:03:39;;;;;;;4.35;3.40;;;;;;;13.57;71.35;100662.02;3409009;82;21225;-83
2022/06/14 04:09:00;;;;;;;5.28;3.02;;;;;;;13.07;72.32;100661.31;3376962;82;20943;-83
2022/06/14 04:14:32;;;;;;;7.15;3.65;;;;;;;12.75;73.31;100664.58;3354187;83;20976;-83
2022/06/14 04:20:06;;;;;;;6.62;3.80;;;;;;;12.53;74.05;100664.86;3372586;83;20980;-83
2022/06/14 04:25:29;;;;;;;4.75;3.75;;;;;;;12.37;74.73;100670.38;3343191;83;21020;-83
2022/06/14 04:30:41;;;;;;;5.35;4.20;;;;;;;12.32;75.43;100661.63;3333360;83;22027;-83
2022/06/14 04:35:41;;;;;;;4.80;3.90;;;;;;;12.30;75.80;100665.97;3328295;83;20961;-83
2022/06/14 04:40:37;;;;;;;7.62;4.22;;;;;;;12.30;76.02;100663.36;3368599;83;21478;-83
2022/06/14 04:45:56;;;;;;;7.20;4.35;;;;;;;12.33;76.26;100668.61;3357003;83;25322;-82
2022/06/14 04:51:02;;;;;;;4.33;3.70;;;;;;;12.36;76.50;100672.12;3425282;80;20968;-83
2022/06/14 04:56:04;;;;;;;4.72;3.77;;;;;;;12.43;76.41;100677.37;3308971;85;21081;-83
2022/06/14 05:01:25;;;;;;;6.60;3.87;;;;;;;12.48;76.65;100672.63;3234213;86;21013;-83
2022/06/14 05:06:34;;;;;;;5.67;3.70;;;;;;;12.56;76.78;100667.06;3274311;85;21133;-83
2022/06/14 05:11:54;;;;;;;7.20;3.80;;;;;;;12.64;76.63;100671.47;3312298;84;22149;-82
2022/06/14 05:16:57;;;;;;;6.35;2.80;;;;;;;12.71;76.26;100674.56;3278202;85;21842;-82
2022/06/14 05:22:08;;;;;;;6.47;2.92;;;;;;;12.79;75.79;100676.81;3285550;85;21094;-82
2022/06/14 05:27:25;;;;;;;6.92;3.58;;;;;;;13.16;75.32;100669.20;3308176;84;21028;-82
2022/06/14 05:32:48;;;;;;;;;;;;;;;13.49;74.84;100675.50;3411025;82;21006;-82
2022/06/14 05:38:14;;;;;;;6.67;4.30;;;;;;;13.59;74.16;100673.34;3435545;82;20183;-82
2022/06/14 05:43:20;;;;;;;5.25;3.87;;;;;;;15.32;71.45;100659.05;3380039;82;22452;-81
2022/06/14 05:48:16;;;;;;;6.10;3.30;;;;;;;15.24;70.54;100662.56;3410322;82;21062;-82
2022/06/14 05:53:37;;;;;;;5.45;3.50;;;;;;;15.28;70.60;100674.35;3435563;83;20967;-82
2022/06/14 05:58:39;;;;;;;7.15;3.35;;;;;;;15.33;69.66;100679.14;3394182;82;20999;-82
2022/06/14 06:04:07;;;;;;;3.90;2.50;;;;;;;14.85;70.51;100679.23;3347003;84;21007;-82
2022/06/14 06:09:03;;;;;;;4.13;3.13;;;;;;;14.77;71.00;100679.25;3407478;82;21047;-82
2022/06/14 06:14:01;;;;;;;4.42;2.40;;;;;;;14.70;70.44;100685.33;3413888;83;21209;-82
2022/06/14 06:19:15;;;;;;;6.87;2.15;;;;;;;14.84;70.24;100686.23;3478751;81;21040;-81
2022/06/14 06:24:18;;;;;;;3.87;2.20;;;;;;;14.89;70.08;100681.41;3431940;81;21233;-82
2022/06/14 06:29:23;;;;;;;6.35;3.40;;;;;;;14.98;69.62;100686.63;3428473;82;20968;-81
2022/06/14 06:34:17;;;;;;;4.58;2.02;;;;;;;15.21;69.03;100682.20;3404090;82;20968;-81
2022/06/14 06:39:49;;;;;;;4.42;2.35;;;;;;;15.30;69.12;100693.55;3394750;82;21335;-82
2022/06/14 06:45:01;;;;;;;4.58;1.80;;;;;;;15.66;67.79;100692.98;3178865;88;21082;-82
2022/06/14 06:50:29;;;;;;;2.83;1.50;;;;;;;15.87;67.70;100686.36;3214526;87;21083;-82
2022/06/14 06:55:34;;;;;;;3.90;2.02;;;;;;;16.13;67.92;100697.13;3195882;87;21107;-82
2022/06/14 07:00:28;;;;;;;3.12;1.55;;;;;;;16.14;66.04;100696.26;3174828;87;21570;-82
2022/06/14 07:05:20;;;;;;;4.75;2.05;;;;;;;16.21;66.41;100697.96;3190120;87;21074;-82
2022/06/14 07:10:19;;;;;;;3.08;1.40;;;;;;;16.44;65.86;100704.81;3227388;87;21596;-82
2022/06/14 07:15:25;;;;;;;2.77;1.30;;;;;;;16.86;64.88;100698.34;3232292;84;21524;-82
2022/06/14 07:20:44;;;;;;;2.40;1.37;;;;;;;17.83;62.00;100686.77;3395992;82;20939;-82
2022/06/14 07:25:46;;;;;;;4.42;1.87;;;;;;;20.16;58.55;100670.27;3428446;82;21524;-84
2022/06/14 07:30:47;;;;;;;2.33;1.30;;;;;;;23.29;52.99;100668.13;3373905;83;21216;-85
2022/06/14 07:35:43;;;;;;;3.33;1.40;;;;;;;25.20;51.04;100669.73;3409592;82;20981;-84
2022/06/14 07:40:50;;;;;;;3.70;1.50;;;;;;;25.59;49.10;100676.88;3433609;82;20992;-84
2022/06/14 07:45:48;;;;;;;2.85;1.50;;;;;;;25.06;49.92;100680.53;3404164;82;21520;-83
2022/06/14 07:51:00;;;;;;;2.30;1.47;;;;;;;24.31;49.46;100685.02;3349782;84;20995;-84
2022/06/14 07:55:59;;;;;;;2.33;1.20;;;;;;;27.99;44.96;100673.16;3337597;83;21172;-84
2022/06/14 08:01:07;;;;;;;2.85;1.25;;;;;;;28.90;41.42;100678.98;3356935;83;20961;-84
2022/06/14 08:06:04;;;;;;;1.40;1.10;;;;;;;28.43;39.10;100679.95;3344121;83;20998;-87
2022/06/14 08:11:01;;;;;;;1.35;1.10;;;;;;;26.13;43.40;100673.02;3384335;83;20990;-86
2022/06/14 08:15:56;;;;;;;2.45;1.10;;;;;;;24.63;45.42;100671.75;3355245;84;21011;-89
2022/06/14 08:20:52;;;;;;;0.95;0.70;;;;;;;25.82;43.05;100674.47;3354398;84;21257;-88
2022/06/14 08:25:48;;;;;;;3.33;1.12;;;;;;;23.64;43.91;100677.87;3366635;83;20979;-86
2022/06/14 08:30:47;;;;;;;3.20;1.12;;;;;;;24.68;41.98;100667.55;3382845;83;21537;-86
2022/06/14 08:36:02;;;;;;;3.65;1.00;;;;;;;24.99;42.75;100663.12;3319134;84;20975;-87
2022/06/14 08:41:14;;;;;;;3.25;1.30;;;;;;;23.01;44.13;100669.08;3387477;83;21402;-84
2022/06/14 08:46:35;;;;;;;2.58;1.27;;;;;;;25.73;40.15;100675.76;3363184;82;50283;-84
2022/06/14 08:51:47;;;;;;;3.67;2.10;;;;;;;25.91;41.40;100681.16;3439521;80;20921;-87
2022/06/14 08:56:52;;;;;;;1.50;1.05;;;;;;;27.69;38.86;100666.75;3354459;82;21469;-84
2022/06/14 09:02:11;;;;;;;2.27;1.40;;;;;;;24.83;42.88;100675.36;3390627;82;20976;-87
2022/06/14 09:07:37;;;;;;;2.40;1.30;;;;;;;23.96;41.96;100690.79;3366764;84;20996;-87
2022/06/14 09:13:10;;;;;;;2.22;1.20;;;;;;;22.04;44.12;100692.99;3375581;82;21095;-87
2022/06/14 09:18:10;;;;;;;3.15;1.42;;;;;;;22.95;42.55;100686.08;3409939;83;21330;-88
2022/06/14 09:23:19;;;;;;;2.25;1.42;;;;;;;24.69;39.82;100678.59;3376805;82;21480;-88
2022/06/14 09:28:27;;;;;;;4.25;1.05;;;;;;;26.07;37.98;100682.17;3335067;84;21011;-87
2022/06/14 09:33:39;;;;;;;2.60;1.17;;;;;;;24.96;39.34;100684.52;3408883;81;21430;-86
2022/06/14 09:39:17;;;;;;;1.60;1.10;;;;;;;25.28;38.32;100691.11;3454736;81;21467;-87
2022/06/14 09:44:38;;;;;;;1.92;1.22;;;;;;;24.03;40.63;100702.52;3453368;82;21030;-82
2022/06/14 09:49:42;;;;;;;2.85;1.47;;;;;;;22.71;41.68;100692.21;3358657;83;21581;-81
2022/06/14 09:54:56;;;;;;;1.87;1.30;;;;;;;26.04;38.55;100698.30;3344394;83;20986;-86
2022/06/14 10:00:33;;;;;;;1.62;0.85;;;;;;;27.03;37.18;100672.10;3303554;83;21095;-81
2022/06/14 10:05:44;;;;;;;2.33;1.35;;;;;;;25.25;37.55;100685.05;3285716;85;21087;-85
2022/06/14 10:10:50;;;;;;;4.60;1.05;;;;;;;23.42;40.06;100682.66;3226179;87;21113;-83
2022/06/14 10:16:09;;;;;;;2.75;1.30;;;;;;;22.00;41.33;100700.63;3209518;87;21631;-80
2022/06/14 10:21:12;;;;;;;3.83;1.00;;;;;;;20.99;42.36;100704.80;3221629;86;20997;-83
2022/06/14 10:32:33;;;;;;;3.40;1.60;;;;;;;19.86;44.59;100707.45;3335305;84;21025;-84
2022/06/14 10:38:05;;;;;;;2.30;1.30;;;;;;;21.49;44.69;100703.90;3333372;82;21002;-85
2022/06/14 10:43:08;;;;;;;2.02;1.17;;;;;;;21.92;44.21;100709.25;3441561;81;20947;-82
2022/06/14 10:48:23;;;;;;;3.55;1.30;;;;;;;21.70;44.11;100709.89;3412177;81;20995;-81
2022/06/14 10:53:31;;;;;;;3.50;1.22;;;;;;;24.24;40.64;100681.73;3433581;81;21007;-84
2022/06/14 10:58:33;;;;;;;2.45;1.50;;;;;;;23.81;39.86;100675.95;3396357;81;21129;-83
2022/06/14 11:03:36;;;;;;;2.95;1.10;;;;;;;22.58;41.24;100685.14;3449539;81;21012;-82
2022/06/14 11:08:54;;;;;;;2.20;1.20;;;;;;;21.24;42.42;100696.61;3400708;81;20994;-83
2022/06/14 11:14:09;;;;;;;2.67;1.27;;;;;;;20.27;43.80;100700.38;3396572;81;21071;-84
2022/06/14 11:19:31;;;;;;;1.82;1.30;;;;;;;19.63;45.48;100703.95;3398387;81;20926;-83
2022/06/14 11:24:37;;;;;;;4.33;1.10;;;;;;;19.46;45.82;100699.03;3419104;81;21417;-81
2022/06/14 11:29:59;;;;;;;3.08;1.72;;;;;;;19.46;46.31;100702.09;3362121;82;21244;-86
2022/06/14 11:35:30;;;;;;;10.90;1.90;;;;;;;19.57;46.11;100696.18;3362243;82;20990;-80
2022/06/14 11:40:31;;;;;;;1.80;0.98;;;;;;;19.73;44.89;100696.30;3365979;82;20994;-79
2022/06/14 11:45:43;;;;;;;1.12;1.00;;;;;;;19.80;45.32;100693.95;3379376;82;20933;-80
2022/06/14 11:51:07;;;;;;;2.47;1.02;;;;;;;20.53;46.00;100686.98;3425038;82;21299;-82
2022/06/14 11:56:04;;;;;;;3.75;1.20;;;;;;;20.82;44.85;100699.52;3259318;85;21024;-81
2022/06/14 12:01:14;;;;;;;;;;;;;;;20.83;44.23;100706.52;3305428;84;21023;-83
2022/06/14 12:06:31;;;;;;;3.98;1.17;;;;;;;20.41;43.20;100707.98;3324316;83;20192;-83
2022/06/14 12:11:41;;;;;;;3.20;1.00;;;;;;;19.91;44.09;100713.96;3336998;83;21593;-84
2022/06/14 12:16:42;;;;;;;3.60;1.20;;;;;;;19.29;45.03;100719.12;3349728;84;21686;-82
2022/06/14 12:21:45;;;;;;;1.70;1.07;;;;;;;18.86;45.41;100715.95;3302876;84;21004;-82
2022/06/14 12:26:55;;;;;;;3.58;2.00;;;;;;;18.75;45.92;100726.63;3304137;84;20980;-83
2022/06/14 12:32:01;;;;;;;4.30;1.30;;;;;;;18.74;45.71;100720.07;3379944;82;21003;-83
2022/06/14 12:37:18;;;;;;;1.50;1.12;;;;;;;18.99;46.00;100722.76;3440066;82;20909;-84
2022/06/14 12:42:41;;;;;;;3.20;1.20;;;;;;;19.48;46.45;100709.55;3438069;82;21153;-85
2022/06/14 12:47:43;;;;;;;3.70;1.50;;;;;;;21.03;45.60;100710.41;3460543;81;21506;-83
2022/06/14 12:52:40;;;;;;;3.22;1.22;;;;;;;21.90;43.61;100711.94;3444292;82;20979;-83
2022/06/14 12:58:01;;;;;;;;;;;;;;;21.05;43.23;100716.52;3408281;82;20948;-84
2022/06/14 13:03:26;;;;;;;2.20;0.90;;;;;;;20.45;44.02;100729.90;3443470;82;20543;-84
2022/06/14 13:08:32;;;;;;;1.80;1.10;;;;;;;20.03;43.96;100736.56;3351350;82;21229;-81
2022/06/14 13:14:01;;;;;;;2.45;1.37;;;;;;;19.91;43.81;100743.84;3338633;85;21106;-80
2022/06/14 13:19:12;;;;;;;1.47;1.15;;;;;;;19.80;44.45;100754.63;3368725;83;20987;-79
2022/06/14 13:24:45;;;;;;;3.83;1.37;;;;;;;19.64;44.02;100741.30;3364601;83;21007;-79
2022/06/14 13:29:56;;;;;;;3.40;1.52;;;;;;;19.35;44.89;100748.44;3357546;83;21006;-83
2022/06/14 13:35:31;;;;;;;3.80;1.40;;;;;;;19.22;45.48;100746.48;3347140;82;21050;-83
2022/06/14 13:40:42;;;;;;;3.40;1.42;;;;;;;19.28;45.39;100743.76;3370388;83;21004;-85
2022/06/14 13:45:39;;;;;;;6.05;1.47;;;;;;;19.43;45.25;100742.13;3349029;84;21549;-81
2022/06/14 13:50:37;;;;;;;;;;;;;;;19.49;45.64;100733.22;3279829;85;21009;-82
2022/06/14 13:55:53;;;;;;;3.47;1.42;;;;;;;19.89;45.92;100744.77;3256749;86;20373;-83
2022/06/14 14:01:07;;;;;;;2.40;1.20;;;;;;;20.31;45.54;100744.73;3272868;86;21508;-83
2022/06/14 14:06:31;;;;;;;3.17;1.10;;;;;;;20.14;45.04;100753.05;3246921;85;20963;-85
2022/06/14 14:11:39;;;;;;;2.02;1.27;;;;;;;20.36;44.54;100750.78;3267580;84;21035;-82
2022/06/14 14:17:06;;;;;;;4.30;1.27;;;;;;;20.36;44.72;100750.78;3288992;86;21116;-81
2022/06/14 14:22:12;;;;;;;2.17;1.22;;;;;;;20.45;44.52;100751.02;3361496;83;20976;-81
2022/06/14 14:27:23;;;;;;;3.70;1.27;;;;;;;20.12;44.58;100760.99;3391318;82;21226;-87
2022/06/14 14:32:32;;;;;;;1.47;1.20;;;;;;;19.95;45.30;100762.66;3348989;82;20962;-82
2022/06/14 14:37:38;;;;;;;5.35;1.70;;;;;;;19.79;44.32;100760.79;3389762;83;20995;-81
2022/06/14 14:42:41;;;;;;;1.37;1.00;;;;;;;19.64;44.97;100754.48;3389853;82;21528;-87
2022/06/14 14:47:47;;;;;;;2.58;1.37;;;;;;;19.69;44.90;100755.70;3403310;83;22208;-82
2022/06/14 14:53:28;;;;;;;2.50;1.15;;;;;;;19.89;45.39;100752.25;3359356;83;23043;-84
2022/06/14 14:58:37;;;;;;;3.62;1.30;;;;;;;20.18;44.64;100752.06;3341017;83;21467;-80
2022/06/14 15:09:16;;;;;;;;;;;;;;;;;;;;;
2022/06/14 15:14:19;;;;;;;;;;;;;;;;;;;;;
2022/06/14 15:24:36;;;;;;;3.08;1.92;;;;;;;18.96;45.41;100756.19;3443441;83;20929;-83
2022/06/14 15:29:38;;;;;;;3.87;1.57;;;;;;;18.90;45.53;100751.87;3416766;83;20999;-80
2022/06/14 15:34:38;;;;;;;4.60;2.22;;;;;;;19.17;45.59;100752.28;3417677;83;20991;-80
2022/06/14 15:39:34;;;;;;;3.42;1.40;;;;;;;19.35;45.88;100759.88;3389106;83;20977;-80
2022/06/14 15:44:31;;;;;;;3.60;1.30;;;;;;;19.48;44.75;100759.19;3417154;83;21090;-80
2022/06/14 15:49:31;;;;;;;3.35;1.22;;;;;;;19.83;45.71;100752.81;3397080;83;20964;-85
2022/06/14 15:54:30;;;;;;;4.85;1.45;;;;;;;19.36;45.54;100763.38;3395235;82;21390;-82
2022/06/14 15:59:30;;;;;;;1.95;1.40;;;;;;;18.84;45.66;100769.11;3341426;84;21019;-82
2022/06/14 16:04:38;;;;;;;3.95;1.30;;;;;;;19.10;46.36;100766.05;3380377;82;20931;-83
2022/06/14 16:09:43;;;;;;;3.35;1.55;;;;;;;19.26;45.73;100765.75;3384119;82;20987;-83
2022/06/14 16:14:49;;;;;;;4.97;1.55;;;;;;;18.98;46.36;100775.02;3378802;83;22314;-83
2022/06/14 16:19:46;;;;;;;3.05;2.22;;;;;;;18.80;46.38;100768.72;3362993;85;20992;-82
2022/06/14 16:24:41;;;;;;;5.08;1.82;;;;;;;18.84;47.02;100775.69;3320057;85;22005;-83
2022/06/14 16:29:54;;;;;;;3.98;1.95;;;;;;;18.80;46.84;100768.72;3295230;84;20979;-80
2022/06/14 16:35:00;;;;;;;4.40;1.72;;;;;;;18.98;46.59;100760.98;3347554;83;20987;-79
2022/06/14 16:40:27;;;;;;;1.98;1.75;;;;;;;18.75;46.99;100766.59;3377833;84;21490;-79
2022/06/14 16:45:48;;;;;;;3.58;1.82;;;;;;;18.30;47.52;100772.53;3348688;83;20952;-82
2022/06/14 16:50:51;;;;;;;3.85;1.75;;;;;;;18.07;47.90;100774.16;3365967;82;21034;-79
2022/06/14 16:56:00;;;;;;;3.42;1.85;;;;;;;17.99;48.23;100774.69;3437553;82;21090;-79
2022/06/14 17:01:00;;;;;;;4.37;2.15;;;;;;;18.29;48.43;100784.80;3274617;85;21192;-80
2022/06/14 17:06:05;;;;;;;3.42;1.65;;;;;;;17.99;48.31;100777.31;3276714;85;21055;-80
2022/06/14 17:11:02;;;;;;;4.65;1.67;;;;;;;17.69;48.74;100780.73;3292519;85;21645;-81
2022/06/14 17:16:34;;;;;;;2.30;1.60;;;;;;;17.59;49.26;100774.69;3255107;85;21041;-80
2022/06/14 17:21:33;;;;;;;2.95;2.10;;;;;;;17.81;49.21;100781.88;3280926;85;20986;-81
2022/06/14 17:31:50;;;;;;;1.65;1.40;;;;;;;17.49;49.98;100778.29;3318917;85;21110;-81
2022/06/14 17:37:05;;;;;;;2.92;1.60;;;;;;;17.34;50.24;100791.16;3330874;82;21005;-80
2022/06/14 17:42:01;;;;;;;2.70;1.70;;;;;;;17.24;50.56;100796.06;3392662;82;20972;-80
2022/06/14 17:46:53;;;;;;;2.37;1.40;;;;;;;17.12;50.73;100799.23;3380215;83;21338;-81
2022/06/14 17:52:05;;;;;;;4.05;1.37;;;;;;;16.97;50.72;100796.73;3395856;83;21068;-81
2022/06/14 17:57:12;;;;;;;1.70;1.60;;;;;;;16.81;50.80;100799.02;3420414;82;21016;-80
2022/06/14 18:02:24;;;;;;;3.10;1.32;;;;;;;16.69;51.01;100795.61;3420465;82;20992;-80
2022/06/14 18:07:32;;;;;;;3.17;1.80;;;;;;;16.63;51.48;100799.56;3439311;82;20971;-81
2022/06/14 18:12:48;;;;;;;2.12;1.42;;;;;;;16.61;51.73;100801.78;3414138;82;21394;-80
2022/06/14 18:17:39;;;;;;;4.90;1.52;;;;;;;16.57;52.04;100799.63;3389588;83;21192;-80
2022/06/14 18:22:39;;;;;;;3.27;1.65;;;;;;;16.52;52.71;100797.46;3432681;82;20987;-80
2022/06/14 18:27:31;;;;;;;4.08;2.00;;;;;;;16.49;52.75;100807.97;3420174;82;20951;-80
2022/06/14 18:32:27;;;;;;;3.30;1.75;;;;;;;16.41;52.42;100803.23;3406594;82;21152;-80
2022/06/14 18:37:28;;;;;;;1.60;1.50;;;;;;;16.38;52.61;100814.17;3459179;82;21646;-80
2022/06/14 18:42:36;;;;;;;6.08;1.90;;;;;;;16.29;52.54;100819.44;3451644;81;22189;-80
2022/06/14 18:47:34;;;;;;;2.85;1.62;;;;;;;16.23;52.73;100828.67;3426078;80;20959;-80
2022/06/14 18:52:36;;;;;;;3.10;1.50;;;;;;;16.20;52.97;100832.61;3401729;82;20975;-80
2022/06/14 18:57:48;;;;;;;1.52;1.40;;;;;;;16.18;53.34;100835.68;3387691;82;21715;-80
2022/06/14 19:02:40;;;;;;;8.15;2.27;;;;;;;16.14;53.46;100837.89;3390317;82;22111;-80
2022/06/14 19:08:05;;;;;;;4.15;1.52;;;;;;;16.09;53.54;100840.97;3342825;83;21623;-80
2022/06/14 19:13:05;;;;;;;2.90;1.60;;;;;;;16.03;53.42;100844.94;3370826;81;21031;-80
2022/06/14 19:18:26;;;;;;;3.72;1.85;;;;;;;15.96;53.72;100850.19;3343381;83;21103;-80
2022/06/14 19:23:46;;;;;;;4.05;2.10;;;;;;;15.91;53.60;100857.19;3339284;83;21066;-79
2022/06/14 19:29:22;;;;;;;2.20;1.60;;;;;;;15.87;53.39;100854.60;3351617;83;20932;-81
2022/06/14 19:34:28;;;;;;;3.33;1.80;;;;;;;15.86;53.78;100852.39;3365546;82;22137;-80
2022/06/14 19:39:20;;;;;;;4.42;2.87;;;;;;;15.82;53.55;100858.53;3334710;82;20987;-81
2022/06/14 19:44:22;;;;;;;5.37;2.00;;;;;;;15.78;53.68;100860.73;3363367;82;21007;-80
2022/06/14 19:54:34;;;;;;;4.20;2.08;;;;;;;15.66;53.99;100865.52;3402596;81;21026;-80
2022/06/14 19:59:37;;;;;;;3.27;2.30;;;;;;;15.61;54.01;100865.55;3377794;82;21064;-80
2022/06/14 20:04:30;;;;;;;3.37;2.10;;;;;;;15.56;53.97;100865.98;3384926;81;21023;-81
2022/06/14 20:09:27;;;;;;;4.05;1.98;;;;;;;15.49;54.28;100871.20;3403489;81;21126;-81
2022/06/14 20:14:22;;;;;;;7.60;2.10;;;;;;;15.38;54.37;100861.63;3419501;81;20990;-81
2022/06/14 20:19:44;;;;;;;9.65;2.30;;;;;;;15.32;54.52;100863.38;3397400;81;21005;-81
2022/06/14 20:24:39;;;;;;;5.17;2.05;;;;;;;15.24;54.79;100859.01;3375439;83;21353;-78
2022/06/14 20:29:30;;;;;;;6.42;2.47;;;;;;;15.20;55.22;100857.27;3427443;82;21003;-78
2022/06/14 20:34:22;;;;;;;3.17;2.25;;;;;;;15.09;55.34;100868.16;3395305;82;20987;-79
2022/06/14 20:39:32;;;;;;;3.50;2.30;;;;;;;14.97;55.76;100870.75;3440409;82;21002;-77
2022/06/14 20:44:24;;;;;;;11.75;3.02;;;;;;;14.85;56.10;100871.19;3413729;81;21011;-78
2022/06/14 20:49:15;;;;;;;4.20;1.92;;;;;;;14.75;57.26;100870.72;3389532;81;21096;-78
2022/06/14 20:54:07;;;;;;;6.12;2.17;;;;;;;14.64;57.62;100875.06;3387301;82;21348;-78
2022/06/14 20:58:58;;;;;;;4.30;2.40;;;;;;;14.52;58.61;100873.68;3445662;81;20991;-78
2022/06/14 21:03:53;;;;;;;5.67;2.52;;;;;;;14.39;58.73;100878.86;3390427;82;22245;-78
2022/06/14 21:08:50;;;;;;;4.67;2.67;;;;;;;14.30;58.95;100887.55;3485027;80;20936;-78
2022/06/14 21:14:07;;;;;;;4.80;2.12;;;;;;;14.29;59.57;100890.18;3387413;81;21542;-78
2022/06/14 21:18:59;;;;;;;4.35;2.55;;;;;;;14.30;59.35;100904.98;3409584;83;21453;-77
2022/06/14 21:23:51;;;;;;;6.83;2.85;;;;;;;14.32;59.93;100890.17;3419264;81;20964;-78
2022/06/14 21:28:49;;;;;;;6.00;2.60;;;;;;;14.32;60.73;100897.15;3459194;82;20977;-78
2022/06/14 21:34:07;;;;;;;3.65;2.40;;;;;;;14.30;60.06;100894.52;3367989;82;22198;-78
2022/06/14 21:38:58;;;;;;;3.12;1.87;;;;;;;14.29;60.30;100899.34;3435669;81;21414;-78
2022/06/14 21:43:59;;;;;;;5.20;2.20;;;;;;;14.30;60.43;100895.83;3383788;82;22458;-78
2022/06/14 21:48:51;;;;;;;5.55;2.40;;;;;;;14.27;60.79;100900.63;3377646;81;21014;-78
2022/06/14 21:53:42;;;;;;;4.60;2.12;;;;;;;14.30;61.22;100899.31;3337580;82;21664;-78
2022/06/14 21:58:40;;;;;;;2.67;2.05;;;;;;;14.34;60.85;100898.89;3393939;81;21505;-78
2022/06/14 22:03:57;;;;;;;2.55;2.30;;;;;;;14.35;61.18;100898.48;3376379;82;21061;-77
2022/06/14 22:08:52;;;;;;;5.20;2.90;;;;;;;14.34;61.39;100896.27;3432993;81;21476;-78
2022/06/14 22:13:46;;;;;;;3.95;2.58;;;;;;;14.36;61.80;100901.52;3367148;83;21005;-77
2022/06/14 22:18:37;;;;;;;6.50;2.77;;;;;;;14.35;61.82;100909.81;3393110;82;21419;-78
2022/06/14 22:23:28;;;;;;;6.60;2.60;;;;;;;14.35;62.12;100903.27;3343419;83;21047;-77
2022/06/14 22:28:19;;;;;;;5.65;2.60;;;;;;;14.29;61.55;100909.35;3389686;82;20982;-78
2022/06/14 22:33:15;;;;;;;5.95;2.12;;;;;;;14.30;61.77;100914.14;3392387;82;20935;-78
2022/06/14 22:38:06;;;;;;;3.83;2.45;;;;;;;14.23;61.92;100913.67;3373821;83;20958;-77
2022/06/14 22:42:57;;;;;;;6.75;2.98;;;;;;;14.22;62.32;100911.94;3402136;82;21184;-77
2022/06/14 22:47:49;;;;;;;4.55;2.50;;;;;;;14.20;62.15;100911.03;3442651;80;20995;-77
2022/06/14 22:52:40;;;;;;;4.12;2.35;;;;;;;14.14;62.29;100910.57;3438970;82;21179;-77
2022/06/14 22:57:36;;;;;;;5.05;2.85;;;;;;;14.08;62.40;100908.80;3431245;82;21609;-77
2022/06/14 23:02:27;;;;;;;4.62;2.77;;;;;;;13.98;62.50;100910.91;3415130;82;21271;-77
2022/06/14 23:07:18;;;;;;;5.47;2.75;;;;;;;13.92;62.58;100915.67;3459269;82;21167;-77
2022/06/14 23:12:11;;;;;;;8.78;3.02;;;;;;;13.92;63.24;100926.57;3333646;82;21054;-77
2022/06/14 23:17:03;;;;;;;2.83;2.50;;;;;;;13.86;63.62;100923.48;3392099;81;21104;-78
2022/06/14 23:21:55;;;;;;;6.33;2.90;;;;;;;13.82;63.42;100922.14;3380384;82;21469;-78
2022/06/14 23:26:47;;;;;;;6.95;3.00;;;;;;;13.79;63.78;100924.72;3353537;83;20936;-78
2022/06/14 23:31:39;;;;;;;6.12;2.70;;;;;;;13.73;63.88;100925.55;3405785;82;20912;-78
2022/06/14 23:36:31;;;;;;;3.85;2.27;;;;;;;13.68;63.87;100925.54;3418833;83;21475;-78
2022/06/14 23:41:23;;;;;;;4.40;2.47;;;;;;;13.58;64.13;100932.85;3384909;82;22016;-78
2022/06/14 23:46:15;;;;;;;8.13;4.42;;;;;;;13.49;64.22;100937.56;3374160;82;20971;-77
2022/06/14 23:51:07;;;;;;;3.83;2.60;;;;;;;13.41;64.11;100941.84;3347542;83;21658;-77
2022/06/14 23:55:59;;;;;;;7.03;2.60;;;;;;;13.39;64.26;100934.42;3342033;84;20978;-78
